Time;durP1;ratioP1;P1;durP2;ratioP2;P2;SDS_P1;SDS_P2;PMS_P1;PMS_P2;Temp;Humidity;BMP_temperature;BMP_pressure;BME280_temperature;BME280_humidity;BME280_pressure;Samples;Min_cycle;Max_cycle;Signal;HPM_P1;HPM_P2
2023/08/10 00:00:12;;;;;;;4.35;1.95;;;;;;;13.60;88.79;102135.63;6281324;22;20020;-77
2023/08/10 00:02:39;;;;;;;7.10;2.00;;;;;;;13.58;89.00;102138.75;6229004;22;20044;-77
2023/08/10 00:05:07;;;;;;;2.33;1.85;;;;;;;13.59;88.69;102134.91;6281713;22;20087;-75
2023/08/10 00:07:36;;;;;;;2.58;1.77;;;;;;;13.59;88.93;102145.59;6281390;22;20012;-75
2023/08/10 00:10:04;;;;;;;4.25;1.90;;;;;;;13.59;88.80;102147.53;6282015;22;20017;-78
2023/08/10 00:12:31;;;;;;;4.72;2.17;;;;;;;13.57;88.84;102141.84;6252823;22;20051;-77
2023/08/10 00:14:57;;;;;;;6.20;2.03;;;;;;;13.56;88.98;102149.13;6254949;22;20507;-77
2023/08/10 00:17:24;;;;;;;5.00;1.63;;;;;;;13.58;88.93;102146.78;6254207;22;20012;-76
2023/08/10 00:19:50;;;;;;;3.40;1.75;;;;;;;13.57;89.23;102142.59;6281514;22;20052;-77
2023/08/10 00:22:17;;;;;;;3.72;2.03;;;;;;;13.57;89.54;102142.59;6281719;22;20016;-78
2023/08/10 00:24:44;;;;;;;6.07;1.90;;;;;;;13.57;88.99;102139.16;6282214;22;20012;-77
2023/08/10 00:27:10;;;;;;;1.83;1.52;;;;;;;13.54;89.13;102130.06;6281554;22;20401;-78
2023/08/10 00:29:37;;;;;;;3.22;2.10;;;;;;;13.56;89.36;102135.00;6281019;22;20036;-77
2023/08/10 00:32:03;;;;;;;1.98;1.77;;;;;;;13.58;89.15;102132.66;6282025;22;20021;-78
2023/08/10 00:34:30;;;;;;;3.92;1.60;;;;;;;13.58;89.13;102128.03;6280908;22;20390;-77
2023/08/10 00:36:57;;;;;;;4.88;1.67;;;;;;;13.58;88.97;102127.28;6254386;22;20419;-78
2023/08/10 00:39:24;;;;;;;2.20;1.75;;;;;;;13.61;89.01;102131.75;6253509;22;20031;-78
2023/08/10 00:41:50;;;;;;;1.92;1.75;;;;;;;13.62;89.01;102123.31;6253860;22;20024;-78
2023/08/10 00:44:17;;;;;;;3.90;1.80;;;;;;;13.62;88.99;102128.66;6281619;22;20521;-77
2023/08/10 00:46:46;;;;;;;2.65;1.67;;;;;;;13.63;89.67;102122.13;6229330;22;20021;-78
2023/08/10 00:49:13;;;;;;;2.75;1.83;;;;;;;13.64;89.64;102128.25;6254826;22;20016;-78
2023/08/10 00:51:40;;;;;;;4.45;1.67;;;;;;;13.65;89.21;102127.06;6253627;22;20024;-78
2023/08/10 00:54:07;;;;;;;4.90;1.83;;;;;;;13.64;88.99;102123.63;6254193;22;20024;-77
2023/08/10 00:56:34;;;;;;;2.20;1.77;;;;;;;13.66;88.96;102125.88;6227984;22;20023;-77
2023/08/10 00:59:01;;;;;;;4.78;1.80;;;;;;;13.66;89.19;102134.66;6254725;22;20016;-78
2023/08/10 01:01:29;;;;;;;4.72;1.80;;;;;;;13.66;89.23;102139.28;6253335;22;20024;-78
2023/08/10 01:03:55;;;;;;;1.83;1.50;;;;;;;13.67;89.61;102144.19;6254043;22;20508;-77
2023/08/10 01:06:48;;;;;;;2.42;1.40;;;;;;;13.68;89.33;102145.69;6253484;22;20434;-77
2023/08/10 01:09:22;;;;;;;4.10;1.52;;;;;;;13.69;88.89;102149.88;6229084;22;20442;-77
2023/08/10 01:12:12;;;;;;;1.75;1.38;;;;;;;13.70;89.15;102142.59;6253652;22;20024;-77
2023/08/10 01:15:06;;;;;;;2.10;1.42;;;;;;;13.71;89.06;102140.66;6261146;22;20480;-77
2023/08/10 01:17:37;;;;;;;6.15;1.80;;;;;;;13.70;89.08;102139.91;6253331;22;20016;-77
2023/08/10 01:20:05;;;;;;;2.70;1.60;;;;;;;13.72;89.04;102144.84;6254620;22;20457;-77
2023/08/10 01:22:55;;;;;;;2.05;1.50;;;;;;;13.72;89.54;102150.19;6253543;22;20025;-78
2023/08/10 01:25:25;;;;;;;1.58;1.48;;;;;;;13.68;88.63;102153.72;6253308;22;20017;-77
2023/08/10 01:27:52;;;;;;;2.85;1.63;;;;;;;13.67;88.31;102154.16;6281588;22;20012;-77
2023/08/10 01:30:18;;;;;;;1.85;1.75;;;;;;;13.67;88.32;102149.53;6252920;22;20020;-77
2023/08/10 01:32:45;;;;;;;5.63;1.52;;;;;;;13.68;88.16;102155.66;6281621;22;20055;-77
2023/08/10 01:35:12;;;;;;;3.75;1.40;;;;;;;13.69;87.83;102163.25;6281417;22;20016;-77
2023/08/10 01:37:39;;;;;;;3.72;1.50;;;;;;;13.70;88.44;102164.00;6281031;22;20048;-78
2023/08/10 01:40:13;;;;;;;1.40;1.30;;;;;;;13.70;87.90;102161.31;6280887;22;20022;-78
2023/08/10 01:42:41;;;;;;;5.45;1.50;;;;;;;13.71;87.84;102154.03;6280708;22;20100;-77
2023/08/10 01:45:08;;;;;;;1.70;1.60;;;;;;;13.71;88.03;102152.13;6254115;22;20339;-77
2023/08/10 01:47:44;;;;;;;2.85;1.27;;;;;;;13.72;87.89;102150.19;6280963;22;20047;-77
2023/08/10 01:50:15;;;;;;;1.65;1.33;;;;;;;13.71;88.09;102149.44;6281528;22;20461;-77
2023/08/10 01:52:50;;;;;;;2.08;1.40;;;;;;;13.71;88.21;102146.03;6248457;22;20047;-77
2023/08/10 01:55:18;;;;;;;5.68;1.63;;;;;;;13.67;88.22;102157.56;6248686;22;20040;-77
2023/08/10 01:57:45;;;;;;;1.70;1.52;;;;;;;13.65;88.88;102154.56;6250846;22;20414;-77
2023/08/10 02:00:12;;;;;;;2.03;1.55;;;;;;;13.64;88.67;102160.34;6223478;22;20399;-77
2023/08/10 02:02:42;;;;;;;3.90;1.80;;;;;;;13.61;88.02;102161.19;6249921;22;20493;-78
2023/08/10 02:05:13;;;;;;;2.67;1.70;;;;;;;13.56;88.77;102159.06;6248802;22;20019;-76
2023/08/10 02:07:41;;;;;;;4.60;1.58;;;;;;;13.53;88.96;102158.00;6249633;22;20087;-76
2023/08/10 02:10:12;;;;;;;4.03;1.70;;;;;;;13.50;89.45;102160.78;6249954;22;20020;-76
2023/08/10 02:12:39;;;;;;;2.67;1.70;;;;;;;13.45;90.03;102159.38;6248565;22;20465;-76
2023/08/10 02:15:06;;;;;;;3.92;1.60;;;;;;;13.42;90.03;102162.88;6248547;22;20023;-76
2023/08/10 02:17:36;;;;;;;2.45;1.60;;;;;;;13.38;90.01;102153.47;6247901;22;20020;-76
2023/08/10 02:20:06;;;;;;;1.80;1.40;;;;;;;13.32;90.10;102150.56;6250260;22;20087;-76
2023/08/10 02:22:32;;;;;;;3.95;2.08;;;;;;;13.29;90.67;102156.75;6222746;22;20052;-76
2023/08/10 02:24:59;;;;;;;1.60;1.50;;;;;;;13.27;91.30;102148.41;6248580;22;20042;-76
2023/08/10 02:27:26;;;;;;;1.50;1.40;;;;;;;13.26;91.36;102152.25;6248241;22;20095;-76
2023/08/10 02:29:52;;;;;;;1.50;1.40;;;;;;;13.24;92.12;102151.91;6249260;22;20055;-76
2023/08/10 02:32:19;;;;;;;1.80;1.40;;;;;;;13.22;93.37;102151.59;6247818;22;20083;-76
2023/08/10 02:34:46;;;;;;;1.70;1.60;;;;;;;13.19;94.13;102149.78;6223383;22;20461;-76
2023/08/10 02:37:13;;;;;;;2.08;1.60;;;;;;;13.18;93.44;102150.97;6249194;22;20012;-76
2023/08/10 02:39:39;;;;;;;1.90;1.70;;;;;;;13.19;94.62;102155.13;6249636;22;20016;-76
2023/08/10 02:42:06;;;;;;;2.10;1.77;;;;;;;13.18;94.16;102161.66;6247973;22;20028;-76
2023/08/10 02:44:32;;;;;;;1.65;1.50;;;;;;;13.18;94.25;102164.31;6247975;22;20051;-76
2023/08/10 02:46:59;;;;;;;2.67;1.90;;;;;;;13.17;94.53;102160.91;6248891;22;20447;-76
2023/08/10 02:49:26;;;;;;;4.00;1.50;;;;;;;13.20;94.93;102164.63;6248225;22;20020;-76
2023/08/10 02:51:54;;;;;;;1.95;1.60;;;;;;;13.22;95.26;102157.69;6222753;22;20021;-76
2023/08/10 02:54:20;;;;;;;5.03;1.67;;;;;;;13.22;95.12;102155.00;6247709;22;20020;-76
2023/08/10 02:56:47;;;;;;;3.53;1.65;;;;;;;13.23;94.71;102151.16;6248750;22;20509;-76
2023/08/10 02:59:14;;;;;;;4.30;1.92;;;;;;;13.25;94.72;102153.41;6248715;22;20023;-76
2023/08/10 03:01:40;;;;;;;2.83;1.42;;;;;;;13.25;95.36;102148.81;6248975;22;20447;-76
2023/08/10 03:04:07;;;;;;;1.73;1.63;;;;;;;13.26;95.39;102150.31;6250685;22;20012;-76
2023/08/10 03:06:34;;;;;;;2.45;1.60;;;;;;;13.28;96.02;102153.31;6247701;22;20462;-76
2023/08/10 03:09:02;;;;;;;2.28;1.30;;;;;;;13.28;95.94;102161.34;6248715;22;20016;-76
2023/08/10 03:11:29;;;;;;;3.08;1.55;;;;;;;13.29;95.99;102157.50;6247809;22;20025;-76
2023/08/10 03:13:55;;;;;;;2.65;1.65;;;;;;;13.32;96.30;102163.94;6248721;22;20099;-76
2023/08/10 03:16:23;;;;;;;2.72;1.63;;;;;;;13.31;96.65;102157.81;6247895;22;20017;-76
2023/08/10 03:18:50;;;;;;;4.60;1.70;;;;;;;13.31;96.79;102159.75;6248335;22;20410;-76
2023/08/10 03:21:18;;;;;;;1.58;1.40;;;;;;;13.31;97.29;102157.06;6221795;22;20054;-76
2023/08/10 03:23:46;;;;;;;1.60;1.50;;;;;;;13.28;97.19;102150.66;6250070;22;20017;-77
2023/08/10 03:26:12;;;;;;;3.13;1.65;;;;;;;13.28;97.32;102160.59;6223201;22;20016;-77
2023/08/10 03:28:39;;;;;;;2.00;1.90;;;;;;;13.23;97.55;102163.78;6247653;22;20027;-76
2023/08/10 03:31:06;;;;;;;1.95;1.55;;;;;;;13.17;97.18;102158.22;6223123;22;20417;-78
2023/08/10 03:33:35;;;;;;;3.35;1.75;;;;;;;13.17;96.86;102165.50;6222635;22;20044;-78
2023/08/10 03:36:02;;;;;;;2.92;1.90;;;;;;;13.18;97.86;102156.31;6249921;22;20068;-78
2023/08/10 03:38:29;;;;;;;3.92;1.73;;;;;;;13.15;97.51;102162.47;6222061;22;20028;-78
2023/08/10 03:40:55;;;;;;;4.40;1.70;;;;;;;13.14;97.47;102164.38;6248134;22;20029;-77
2023/08/10 03:43:22;;;;;;;2.00;1.90;;;;;;;13.13;97.76;102164.81;6249015;22;20024;-78
2023/08/10 03:45:49;;;;;;;1.95;1.70;;;;;;;13.09;97.86;102162.22;6250172;22;20017;-77
2023/08/10 03:48:16;;;;;;;1.75;1.48;;;;;;;13.08;97.73;102165.31;6247980;22;20016;-77
2023/08/10 03:50:42;;;;;;;1.70;1.60;;;;;;;13.06;98.18;102173.00;6246991;22;20032;-78
2023/08/10 03:53:09;;;;;;;1.70;1.60;;;;;;;13.03;98.77;102175.34;6264102;22;20019;-77
2023/08/10 03:55:36;;;;;;;3.15;1.67;;;;;;;12.99;98.06;102176.63;6253805;22;20078;-77
2023/08/10 03:58:03;;;;;;;2.72;1.55;;;;;;;12.96;98.94;102175.53;6254265;22;20016;-75
2023/08/10 04:00:30;;;;;;;2.88;1.90;;;;;;;12.92;98.98;102179.47;6281354;22;20086;-77
2023/08/10 04:02:58;;;;;;;2.22;2.10;;;;;;;12.89;98.51;102173.03;6254528;22;20023;-76
2023/08/10 04:05:24;;;;;;;3.53;1.80;;;;;;;12.86;98.55;102183.81;6253721;22;20016;-76
2023/08/10 04:07:51;;;;;;;2.92;1.90;;;;;;;12.83;98.57;102179.31;6282023;22;20020;-76
2023/08/10 04:10:18;;;;;;;2.85;2.00;;;;;;;12.82;98.82;102178.56;6253818;22;20020;-76
2023/08/10 04:12:44;;;;;;;5.80;2.00;;;;;;;12.79;97.98;102179.41;6255022;22;20074;-76
2023/08/10 04:15:11;;;;;;;4.38;1.98;;;;;;;12.75;98.49;102181.41;6229639;22;20017;-76
2023/08/10 04:17:38;;;;;;;3.13;1.88;;;;;;;12.74;98.12;102187.19;6228495;22;20100;-76
2023/08/10 04:20:08;;;;;;;2.75;1.63;;;;;;;12.69;98.42;102191.09;6253593;22;20095;-76
2023/08/10 04:22:36;;;;;;;4.75;2.10;;;;;;;12.65;99.33;102187.75;6253815;22;20020;-76
2023/08/10 04:25:04;;;;;;;2.45;1.90;;;;;;;12.59;99.55;102190.19;6254185;22;20051;-76
2023/08/10 04:27:31;;;;;;;2.70;2.08;;;;;;;12.58;99.66;102198.63;6254227;22;20017;-76
2023/08/10 04:29:58;;;;;;;3.13;1.90;;;;;;;12.58;99.26;102194.03;6282162;22;20018;-76
2023/08/10 04:32:25;;;;;;;2.17;1.77;;;;;;;12.59;99.69;102194.78;6254173;22;20084;-76
2023/08/10 04:34:52;;;;;;;1.83;1.73;;;;;;;12.58;99.60;102186.00;6281279;22;20095;-76
2023/08/10 04:37:19;;;;;;;1.70;1.60;;;;;;;12.57;99.89;102194.44;6254014;22;20016;-76
2023/08/10 04:39:45;;;;;;;2.22;1.90;;;;;;;12.55;99.17;102191.44;6281693;22;20047;-76
2023/08/10 04:42:14;;;;;;;2.17;2.08;;;;;;;12.51;100.00;102185.44;6254149;22;20453;-76
2023/08/10 04:44:40;;;;;;;3.05;1.75;;;;;;;12.51;99.78;102186.19;6281173;22;20023;-76
2023/08/10 04:47:07;;;;;;;2.08;1.98;;;;;;;12.52;100.00;102189.59;6281716;22;20074;-76
2023/08/10 04:49:33;;;;;;;1.80;1.70;;;;;;;12.50;100.00;102190.00;6280335;22;20091;-77
2023/08/10 04:52:00;;;;;;;2.08;1.85;;;;;;;12.51;100.00;102180.09;6254332;22;20016;-76
2023/08/10 04:54:26;;;;;;;2.22;1.92;;;;;;;12.51;100.00;102190.75;6253759;22;20414;-75
2023/08/10 04:56:53;;;;;;;3.13;2.08;;;;;;;12.49;100.00;102185.84;6254349;22;20468;-77
2023/08/10 04:59:20;;;;;;;4.93;2.25;;;;;;;12.51;100.00;102183.50;6280994;22;20020;-77
2023/08/10 05:01:46;;;;;;;2.10;1.90;;;;;;;12.54;100.00;102177.31;6281625;22;20446;-77
2023/08/10 05:04:14;;;;;;;2.85;2.00;;;;;;;12.64;100.00;102172.91;6280786;22;20012;-77
2023/08/10 05:06:42;;;;;;;5.85;1.98;;;;;;;12.74;99.85;102184.50;6253014;22;20484;-77
2023/08/10 05:09:09;;;;;;;5.25;2.20;;;;;;;12.85;99.74;102185.72;6281705;22;20016;-77
2023/08/10 05:11:36;;;;;;;2.38;2.17;;;;;;;12.98;99.40;102181.22;6280625;22;20016;-77
2023/08/10 05:14:04;;;;;;;3.80;2.00;;;;;;;13.08;98.86;102176.75;6281600;22;20023;-77
2023/08/10 05:16:30;;;;;;;2.10;2.00;;;;;;;13.25;98.84;102175.56;6254197;22;20435;-77
2023/08/10 05:18:57;;;;;;;2.42;2.22;;;;;;;15.17;94.29;102172.38;6253508;22;20418;-77
2023/08/10 05:21:24;;;;;;;6.22;2.70;;;;;;;17.63;80.23;102174.06;6280613;22;20055;-75
2023/08/10 05:23:50;;;;;;;4.15;2.50;;;;;;;19.33;70.73;102178.53;6281432;22;20473;-79
2023/08/10 05:26:17;;;;;;;4.05;2.80;;;;;;;19.66;66.86;102181.06;6254242;22;20484;-77
2023/08/10 05:28:44;;;;;;;3.08;2.65;;;;;;;19.32;66.00;102182.44;6281485;22;20051;-78
2023/08/10 05:31:11;;;;;;;4.63;2.55;;;;;;;18.19;69.39;102178.06;6281434;22;20012;-77
2023/08/10 05:33:37;;;;;;;5.20;3.75;;;;;;;17.50;72.83;102176.97;6253370;22;20336;-77
2023/08/10 05:36:06;;;;;;;4.50;3.08;;;;;;;18.04;72.56;102174.53;6281281;22;20468;-77
2023/08/10 05:38:33;;;;;;;4.18;2.88;;;;;;;20.12;65.01;102188.59;6252764;22;20023;-77
2023/08/10 05:41:01;;;;;;;2.83;2.63;;;;;;;21.49;59.29;102187.16;6254143;22;20055;-77
2023/08/10 05:43:27;;;;;;;5.30;2.58;;;;;;;22.26;56.40;102190.88;6253118;22;20017;-77
2023/08/10 05:45:54;;;;;;;3.83;3.00;;;;;;;23.06;54.13;102185.19;6228322;22;20020;-76
2023/08/10 05:48:21;;;;;;;2.97;2.78;;;;;;;23.70;51.92;102184.19;6253333;22;20025;-77
2023/08/10 05:50:48;;;;;;;5.00;2.78;;;;;;;24.11;50.79;102189.78;6228541;22;20044;-77
2023/08/10 05:53:15;;;;;;;3.10;2.90;;;;;;;24.50;49.42;102192.38;6280914;22;20075;-77
2023/08/10 05:55:42;;;;;;;4.47;2.97;;;;;;;24.53;49.14;102188.66;6253561;22;20127;-77
2023/08/10 05:58:08;;;;;;;4.88;3.35;;;;;;;24.36;48.44;102193.44;6281289;22;20056;-78
2023/08/10 06:00:39;;;;;;;6.50;3.50;;;;;;;24.14;49.60;102196.94;6252204;22;20545;-77
2023/08/10 06:03:06;;;;;;;5.95;3.03;;;;;;;23.93;49.87;102193.06;6281349;22;20394;-77
2023/08/10 06:05:35;;;;;;;3.00;2.70;;;;;;;23.77;50.18;102191.84;6252916;22;20101;-78
2023/08/10 06:08:02;;;;;;;4.38;3.20;;;;;;;23.47;51.05;102185.44;6253768;22;20106;-77
2023/08/10 06:10:28;;;;;;;4.13;3.50;;;;;;;22.98;52.05;102192.34;6280450;22;20016;-78
2023/08/10 06:12:55;;;;;;;6.47;3.63;;;;;;;22.68;53.27;102186.56;6281497;22;20323;-79
2023/08/10 06:15:22;;;;;;;5.05;3.63;;;;;;;22.75;53.99;102192.28;6252556;22;20430;-79
2023/08/10 06:17:48;;;;;;;4.63;3.28;;;;;;;22.62;54.63;102184.59;6281370;22;20316;-78
2023/08/10 06:20:21;;;;;;;4.20;3.38;;;;;;;22.15;56.18;102188.09;6253706;22;20042;-78
2023/08/10 06:22:48;;;;;;;4.30;3.50;;;;;;;21.85;57.77;102193.81;6254506;22;20438;-77
2023/08/10 06:25:15;;;;;;;5.65;3.30;;;;;;;21.42;58.84;102198.44;6281044;22;20023;-77
2023/08/10 06:27:42;;;;;;;3.60;3.40;;;;;;;21.07;59.36;102197.84;6253227;22;20020;-79
2023/08/10 06:30:09;;;;;;;3.95;3.10;;;;;;;21.00;61.29;102196.31;6281166;22;20346;-78
2023/08/10 06:32:36;;;;;;;5.25;3.53;;;;;;;20.95;61.33;102192.31;6281150;22;20013;-78
2023/08/10 06:35:04;;;;;;;4.40;3.38;;;;;;;20.86;61.35;102181.63;6254027;22;20490;-78
2023/08/10 06:37:32;;;;;;;9.77;3.40;;;;;;;20.79;61.95;102182.06;6280179;22;20012;-77
2023/08/10 06:39:59;;;;;;;7.43;3.10;;;;;;;20.67;61.95;102185.88;6281386;22;20044;-86
2023/08/10 06:42:26;;;;;;;4.20;3.03;;;;;;;20.53;61.70;102186.69;6252791;22;20013;-83
2023/08/10 06:45:00;;;;;;;3.30;3.00;;;;;;;20.48;63.44;102188.09;6252397;22;20027;-83
2023/08/10 06:47:26;;;;;;;4.13;3.03;;;;;;;20.62;63.97;102183.84;6252536;22;20074;-77
2023/08/10 06:49:53;;;;;;;4.00;3.28;;;;;;;20.71;63.19;102182.97;6280838;22;20020;-78
2023/08/10 06:52:20;;;;;;;7.28;3.15;;;;;;;20.69;62.15;102186.16;6279611;22;20051;-77
2023/08/10 06:54:46;;;;;;;8.40;2.90;;;;;;;20.49;60.81;102194.25;6280574;22;20012;-77
2023/08/10 06:57:13;;;;;;;3.13;2.58;;;;;;;20.29;62.55;102193.03;6280852;22;20016;-78
2023/08/10 06:59:39;;;;;;;4.75;3.05;;;;;;;20.16;62.63;102195.28;6252258;22;20059;-77
2023/08/10 07:02:09;;;;;;;3.53;3.15;;;;;;;20.20;62.93;102192.41;6280843;22;20016;-78
2023/08/10 07:04:39;;;;;;;3.70;3.40;;;;;;;20.07;63.38;102189.25;6279967;22;20338;-78
2023/08/10 07:07:06;;;;;;;5.07;4.28;;;;;;;20.05;63.56;102191.69;6253606;22;20024;-77
2023/08/10 07:09:33;;;;;;;3.70;3.35;;;;;;;20.07;64.21;102183.84;6252517;22;20095;-77
2023/08/10 07:11:59;;;;;;;6.13;3.28;;;;;;;20.07;64.07;102189.25;6280580;22;20018;-77
2023/08/10 07:14:26;;;;;;;3.58;3.17;;;;;;;20.04;64.09;102182.84;6279126;22;20059;-78
2023/08/10 07:16:53;;;;;;;6.47;3.15;;;;;;;19.95;63.99;102188.38;6253484;22;20432;-77
2023/08/10 07:19:19;;;;;;;3.40;3.10;;;;;;;19.87;62.23;102184.56;6252481;22;20012;-77
2023/08/10 07:21:46;;;;;;;3.67;3.17;;;;;;;20.04;63.78;102188.25;6280265;22;20021;-76
2023/08/10 07:24:12;;;;;;;3.53;3.30;;;;;;;20.25;62.25;102191.72;6280445;22;20409;-77
2023/08/10 07:26:39;;;;;;;3.53;3.13;;;;;;;20.25;62.06;102187.06;6279815;22;20025;-77
2023/08/10 07:29:06;;;;;;;3.92;2.88;;;;;;;20.29;62.88;102187.59;6280895;22;20018;-77
2023/08/10 07:31:33;;;;;;;4.93;3.08;;;;;;;20.42;60.67;102192.69;6254435;22;20379;-77
2023/08/10 07:33:59;;;;;;;4.13;2.42;;;;;;;20.46;60.95;102190.53;6281621;22;20078;-79
2023/08/10 07:36:26;;;;;;;2.53;2.33;;;;;;;20.43;59.97;102196.88;6254196;22;20020;-78
2023/08/10 07:38:55;;;;;;;3.42;2.40;;;;;;;20.73;60.95;102186.69;6254533;22;20528;-79
2023/08/10 07:41:22;;;;;;;2.22;1.80;;;;;;;20.85;57.86;102187.53;6280806;22;20451;-81
2023/08/10 07:43:49;;;;;;;2.40;2.20;;;;;;;20.77;56.99;102191.88;6281521;22;20520;-79
2023/08/10 07:46:16;;;;;;;4.00;1.60;;;;;;;20.73;57.56;102189.38;6281758;22;20012;-78
2023/08/10 07:48:45;;;;;;;1.38;1.33;;;;;;;20.63;57.23;102204.28;6281727;22;20044;-76
2023/08/10 07:51:13;;;;;;;1.70;1.60;;;;;;;20.54;58.13;102196.28;6281644;22;20429;-77
2023/08/10 07:53:39;;;;;;;3.78;1.65;;;;;;;20.52;58.75;102201.44;6280919;22;20020;-77
2023/08/10 07:56:06;;;;;;;1.75;1.63;;;;;;;20.54;57.54;102205.16;6282055;22;20020;-76
2023/08/10 07:58:32;;;;;;;3.13;1.60;;;;;;;20.27;58.41;102192.75;6280493;22;20501;-77
2023/08/10 08:00:59;;;;;;;1.83;1.73;;;;;;;20.19;58.83;102199.03;6254466;22;20030;-77
2023/08/10 08:03:25;;;;;;;2.88;1.60;;;;;;;20.05;61.56;102188.97;6280879;22;20016;-76
2023/08/10 08:05:53;;;;;;;3.38;1.73;;;;;;;19.94;61.53;102187.63;6254400;22;20025;-76
2023/08/10 08:08:19;;;;;;;8.77;1.95;;;;;;;19.91;62.50;102193.97;6280939;22;20019;-76
2023/08/10 08:10:47;;;;;;;5.40;2.10;;;;;;;19.82;61.54;102193.34;6254710;22;20023;-76
2023/08/10 08:13:13;;;;;;;2.00;1.90;;;;;;;19.80;62.73;102190.34;6254235;22;20028;-76
2023/08/10 08:15:40;;;;;;;2.45;1.85;;;;;;;19.86;65.43;102200.03;6281146;22;20066;-76
2023/08/10 08:18:44;;;;;;;4.82;2.10;;;;;;;19.87;64.16;102200.78;6281694;22;20074;-77
2023/08/10 08:21:13;;;;;;;3.40;2.13;;;;;;;19.73;65.00;102202.28;6254481;22;20500;-76
2023/08/10 08:23:40;;;;;;;3.15;2.17;;;;;;;19.84;66.56;102209.81;6254101;22;20039;-76
2023/08/10 08:26:07;;;;;;;3.33;2.00;;;;;;;19.94;65.03;102203.09;6281129;22;20016;-76
2023/08/10 08:28:34;;;;;;;3.03;1.88;;;;;;;19.96;65.46;102204.13;6280552;22;20059;-76
2023/08/10 08:31:01;;;;;;;4.18;2.25;;;;;;;20.10;65.70;102213.41;6281717;22;20438;-76
2023/08/10 08:33:27;;;;;;;2.58;1.80;;;;;;;20.18;65.26;102211.03;6280909;22;20016;-76
2023/08/10 08:35:54;;;;;;;4.90;1.58;;;;;;;20.24;63.84;102209.16;6254965;22;20016;-76
2023/08/10 08:38:21;;;;;;;3.67;1.85;;;;;;;20.50;63.14;102220.09;6281122;22;20070;-76
2023/08/10 08:40:50;;;;;;;1.80;1.70;;;;;;;20.77;62.53;102218.94;6252891;22;20016;-76
2023/08/10 08:43:18;;;;;;;2.05;1.60;;;;;;;21.09;61.69;102225.94;6253846;22;20450;-76
2023/08/10 08:45:45;;;;;;;2.13;1.67;;;;;;;21.41;60.07;102223.28;6281259;22;20362;-76
2023/08/10 08:48:14;;;;;;;2.33;1.40;;;;;;;21.67;59.33;102225.94;6281740;22;20012;-76
2023/08/10 08:50:43;;;;;;;5.07;1.50;;;;;;;21.72;59.19;102217.13;6280755;22;20446;-76
2023/08/10 08:53:11;;;;;;;3.95;1.50;;;;;;;21.53;57.65;102214.78;6280960;22;20453;-77
2023/08/10 08:55:39;;;;;;;3.25;1.70;;;;;;;21.57;58.79;102215.31;6280144;22;20096;-76
2023/08/10 08:58:06;;;;;;;2.40;1.77;;;;;;;21.61;57.34;102210.38;6254570;22;20016;-76
2023/08/10 09:00:33;;;;;;;1.90;1.80;;;;;;;21.62;58.76;102198.34;6280757;22;20032;-76
2023/08/10 09:03:01;;;;;;;2.08;1.80;;;;;;;21.79;57.38;102216.69;6281432;22;20016;-76
2023/08/10 09:05:29;;;;;;;2.83;1.42;;;;;;;21.76;57.50;102209.53;6280431;22;20019;-76
2023/08/10 09:07:56;;;;;;;3.40;1.88;;;;;;;21.90;56.74;102208.63;6254315;22;20397;-76
2023/08/10 09:10:22;;;;;;;3.05;1.40;;;;;;;22.07;58.29;102212.22;6280113;22;20018;-76
2023/08/10 09:12:49;;;;;;;4.25;1.90;;;;;;;22.18;57.35;102215.00;6281244;22;20462;-76
2023/08/10 09:15:18;;;;;;;2.50;1.50;;;;;;;22.14;55.78;102205.59;6281628;22;20067;-76
2023/08/10 09:17:52;;;;;;;2.97;1.63;;;;;;;22.21;55.75;102207.84;6281462;22;20075;-76
2023/08/10 09:20:25;;;;;;;4.20;1.98;;;;;;;22.26;53.89;102209.84;6280482;22;20031;-76
2023/08/10 09:22:54;;;;;;;6.85;1.60;;;;;;;22.43;56.26;102204.47;6254438;22;20027;-85
2023/08/10 09:25:22;;;;;;;1.90;1.80;;;;;;;22.70;53.21;102206.56;6279873;22;20016;-78
2023/08/10 09:27:50;;;;;;;2.30;2.10;;;;;;;22.72;53.42;102193.25;6254018;22;20741;-78
2023/08/10 09:30:19;;;;;;;1.90;1.80;;;;;;;22.69;53.00;102198.91;6281351;22;20454;-79
2023/08/10 09:32:46;;;;;;;4.50;2.00;;;;;;;22.46;53.31;102189.94;6281094;22;20023;-80
2023/08/10 09:35:14;;;;;;;2.25;1.75;;;;;;;22.54;53.01;102188.25;6280989;22;20023;-79
2023/08/10 09:37:42;;;;;;;1.52;1.45;;;;;;;22.76;54.67;102196.47;6280602;22;20036;-79
2023/08/10 09:40:11;;;;;;;2.05;1.85;;;;;;;22.99;51.46;102201.97;6280847;22;20067;-80
2023/08/10 09:42:40;;;;;;;2.58;1.70;;;;;;;23.11;52.72;102200.75;6280461;22;20016;-79
2023/08/10 09:45:11;;;;;;;6.43;2.03;;;;;;;23.35;51.42;102214.59;6253618;22;20097;-79
2023/08/10 09:47:40;;;;;;;5.35;1.90;;;;;;;23.68;53.21;102204.97;6253614;22;20087;-79
2023/08/10 09:50:16;;;;;;;1.63;1.52;;;;;;;23.88;50.60;102201.97;6228500;22;20019;-80
2023/08/10 09:52:45;;;;;;;4.45;1.85;;;;;;;23.85;49.97;102195.56;6279852;22;20020;-81
2023/08/10 09:55:11;;;;;;;4.68;1.80;;;;;;;23.87;48.58;102189.63;6253933;22;20020;-81
2023/08/10 09:57:44;;;;;;;2.22;1.63;;;;;;;23.91;49.39;102185.41;6228393;22;20120;-79
2023/08/10 10:00:19;;;;;;;3.20;1.80;;;;;;;24.09;48.71;102186.81;6281252;22;20035;-81
2023/08/10 10:02:47;;;;;;;2.08;1.88;;;;;;;24.20;50.03;102189.50;6254080;22;20020;-80
2023/08/10 10:05:17;;;;;;;3.33;1.70;;;;;;;24.41;48.28;102189.19;6280751;22;20454;-85
2023/08/10 10:08:03;;;;;;;2.00;1.80;;;;;;;24.45;47.88;102189.69;6280600;22;20469;-82
2023/08/10 10:10:30;;;;;;;2.13;2.00;;;;;;;24.30;48.52;102190.00;6280223;22;20017;-83
2023/08/10 10:12:58;;;;;;;3.63;1.90;;;;;;;24.47;48.55;102189.91;6280808;22;20055;-88
2023/08/10 10:15:25;;;;;;;2.15;1.98;;;;;;;24.63;48.08;102180.19;6252871;22;20047;-84
2023/08/10 10:17:52;;;;;;;6.07;2.17;;;;;;;24.77;47.58;102192.75;6253977;22;20040;-84
2023/08/10 10:20:20;;;;;;;2.97;2.00;;;;;;;24.90;48.32;102190.91;6280090;22;20019;-88
2023/08/10 10:22:47;;;;;;;7.75;2.25;;;;;;;25.11;48.23;102188.56;6252679;22;20395;-83
2023/08/10 10:25:17;;;;;;;9.00;2.45;;;;;;;25.16;47.93;102195.22;6280724;22;20426;-79
2023/08/10 10:27:49;;;;;;;2.50;2.40;;;;;;;25.55;46.24;102192.91;6254075;22;20016;-81
2023/08/10 10:30:18;;;;;;;2.40;2.10;;;;;;;25.50;47.67;102199.16;6253488;22;20071;-88
2023/08/10 10:32:46;;;;;;;4.25;2.28;;;;;;;25.30;46.88;102198.81;6253637;22;20087;-80
2023/08/10 10:35:15;;;;;;;2.60;2.38;;;;;;;25.13;45.88;102201.69;6253250;22;20082;-80
2023/08/10 10:37:42;;;;;;;2.72;1.88;;;;;;;25.03;48.81;102206.69;6279528;22;20012;-80
2023/08/10 10:40:21;;;;;;;3.42;2.00;;;;;;;25.10;48.36;102203.44;6253386;22;20016;-80
2023/08/10 10:43:03;;;;;;;5.45;1.90;;;;;;;25.07;46.55;102203.72;6280821;22;20027;-79
2023/08/10 10:45:50;;;;;;;1.77;1.60;;;;;;;25.42;46.69;102205.66;6280005;22;20016;-80
2023/08/10 10:48:32;;;;;;;1.48;1.38;;;;;;;25.38;47.72;102197.75;6281020;22;20016;-80
2023/08/10 10:51:02;;;;;;;2.33;2.15;;;;;;;25.09;46.35;102203.94;6280355;22;20047;-79
2023/08/10 10:53:28;;;;;;;4.63;2.05;;;;;;;24.90;46.38;102192.88;6252114;22;20413;-80
2023/08/10 10:55:55;;;;;;;6.22;1.98;;;;;;;25.05;47.48;102200.75;6253746;22;20020;-80
2023/08/10 10:58:22;;;;;;;2.30;1.67;;;;;;;24.97;46.60;102195.09;6279840;22;20055;-78
2023/08/10 11:00:50;;;;;;;3.35;1.83;;;;;;;25.09;47.14;102203.94;6280572;22;20040;-78
2023/08/10 11:03:19;;;;;;;4.53;2.30;;;;;;;25.07;47.53;102199.00;6280678;22;20055;-90
2023/08/10 11:05:46;;;;;;;3.75;2.00;;;;;;;25.01;47.47;102197.56;6280445;22;20016;-86
2023/08/10 11:08:15;;;;;;;2.80;2.00;;;;;;;25.03;47.93;102206.69;6281146;22;20016;-90
2023/08/10 11:10:43;;;;;;;5.43;2.00;;;;;;;24.81;48.58;102196.66;6253763;22;20101;-90
2023/08/10 11:13:10;;;;;;;3.40;2.28;;;;;;;24.91;49.20;102197.84;6281268;22;20016;-90
2023/08/10 11:15:37;;;;;;;8.07;2.30;;;;;;;25.05;47.52;102198.75;6253738;22;20661;-84
2023/08/10 11:18:11;;;;;;;2.55;2.30;;;;;;;24.93;47.99;102200.06;6280582;22;20044;-83
2023/08/10 11:20:43;;;;;;;3.42;2.05;;;;;;;24.76;47.77;102192.00;6279182;22;20303;-81
2023/08/10 11:23:10;;;;;;;5.03;1.98;;;;;;;24.80;47.91;102194.44;6253445;22;20095;-82
2023/08/10 11:25:45;;;;;;;1.65;1.55;;;;;;;24.92;48.05;102198.56;6252375;22;20465;-82
2023/08/10 11:28:14;;;;;;;2.25;1.83;;;;;;;24.98;47.62;102195.84;6280532;22;20095;-82